Time;durP1;ratioP1;P1;durP2;ratioP2;P2;SDS_P1;SDS_P2;PMS_P1;PMS_P2;Temp;Humidity;BMP_temperature;BMP_pressure;BME280_temperature;BME280_humidity;BME280_pressure;Samples;Min_cycle;Max_cycle;Signal;HPM_P1;HPM_P2
2022/05/07 00:01:53;;;;;;;;;;;14.20;47.60;;;;;;2293307;54;20112;-76
2022/05/07 00:04:19;;;;;;;;;;;14.20;47.70;;;;;;2341078;54;20124;-77
2022/05/07 00:06:45;;;;;;;;;;;14.10;47.70;;;;;;2291310;54;20120;-76
2022/05/07 00:09:11;;;;;;;;;;;14.20;47.80;;;;;;2296362;54;20071;-76
2022/05/07 00:11:38;;;;;;;;;;;14.10;47.70;;;;;;2287823;54;20377;-76
2022/05/07 00:14:04;;;;;;;;;;;14.10;47.70;;;;;;2337350;54;20064;-76
2022/05/07 00:19:15;;;;;;;;;;;14.00;47.80;;;;;;2528899;54;20585;-77
2022/05/07 00:21:41;;;;;;;;;;;14.00;47.80;;;;;;2293915;54;20456;-77
2022/05/07 00:24:07;;;;;;;;;;;14.00;47.90;;;;;;2295421;54;20120;-76
2022/05/07 00:26:34;;;;;;;;;;;13.90;47.90;;;;;;2298266;54;20052;-76
2022/05/07 00:29:00;;;;;;;;;;;13.90;47.90;;;;;;2292976;54;20757;-77
2022/05/07 00:31:26;;;;;;;;;;;13.90;47.90;;;;;;2293718;54;20107;-76
2022/05/07 00:33:53;;;;;;;;;;;13.80;47.90;;;;;;2293209;54;20318;-76
2022/05/07 00:36:19;;;;;;;;;;;13.80;48.00;;;;;;2466529;54;20104;-76
2022/05/07 00:38:49;;;;;;;;;;;13.80;48.00;;;;;;2490388;53;20057;-76
2022/05/07 00:41:15;;;;;;;;;;;13.80;48.10;;;;;;2322977;54;20369;-76
2022/05/07 00:43:43;;;;;;;;;;;13.70;48.00;;;;;;2293660;54;20076;-76
2022/05/07 00:46:10;;;;;;;;;;;13.60;48.00;;;;;;2302740;54;20121;-76
2022/05/07 00:48:36;;;;;;;;;;;13.60;48.00;;;;;;2293141;54;20069;-76
2022/05/07 00:53:48;;;;;;;;;;;13.60;48.10;;;;;;2366295;54;20080;-76
2022/05/07 00:56:17;;;;;;;;;;;13.50;48.00;;;;;;2293605;54;20108;-76
2022/05/07 00:58:43;;;;;;;;;;;13.50;48.00;;;;;;2293544;54;20083;-75
2022/05/07 01:01:09;;;;;;;;;;;13.40;48.00;;;;;;2293842;54;20064;-76
2022/05/07 01:03:36;;;;;;;;;;;13.40;48.00;;;;;;2295411;54;20131;-76
2022/05/07 01:06:02;;;;;;;;;;;13.40;48.10;;;;;;2296003;54;20132;-76
2022/05/07 01:08:29;;;;;;;;;;;13.40;48.10;;;;;;2293714;54;20140;-76
2022/05/07 01:10:56;;;;;;;;;;;13.30;48.10;;;;;;2292847;54;20439;-76
2022/05/07 01:13:22;;;;;;;;;;;13.20;48.10;;;;;;2295831;54;20118;-76
2022/05/07 01:15:53;;;;;;;;;;;13.20;48.20;;;;;;2293950;54;20432;-76
2022/05/07 01:18:19;;;;;;;;;;;13.20;48.30;;;;;;2288794;54;20132;-76
2022/05/07 01:20:45;;;;;;;;;;;13.10;48.20;;;;;;2329961;54;20119;-76
2022/05/07 01:23:12;;;;;;;;;;;13.10;48.30;;;;;;2290105;55;20077;-76
2022/05/07 01:25:38;;;;;;;;;;;13.10;48.40;;;;;;2330725;54;20109;-76
2022/05/07 01:28:04;;;;;;;;;;;13.10;48.50;;;;;;2293235;54;20525;-76
2022/05/07 01:30:31;;;;;;;;;;;13.10;48.50;;;;;;2357184;54;20762;-76
2022/05/07 01:32:57;;;;;;;;;;;13.00;48.50;;;;;;2396234;54;20148;-77
2022/05/07 01:35:23;;;;;;;;;;;13.00;48.60;;;;;;2291969;54;20139;-76
2022/05/07 01:37:50;;;;;;;;;;;13.00;48.60;;;;;;2292235;54;20436;-76
2022/05/07 01:40:16;;;;;;;;;;;13.00;48.60;;;;;;2434406;54;20108;-76
2022/05/07 01:42:42;;;;;;;;;;;13.00;48.60;;;;;;2341471;54;20354;-76
2022/05/07 01:45:09;;;;;;;;;;;13.00;48.70;;;;;;2292993;54;20151;-76
2022/05/07 01:50:23;;;;;;;;;;;12.90;48.60;;;;;;2335683;54;20087;-76
2022/05/07 01:52:49;;;;;;;;;;;12.90;48.60;;;;;;2293518;54;20626;-77
2022/05/07 01:55:15;;;;;;;;;;;12.90;48.70;;;;;;2269707;56;20720;-76
2022/05/07 01:57:42;;;;;;;;;;;12.80;48.60;;;;;;2297686;54;20140;-76
2022/05/07 02:00:11;;;;;;;;;;;12.80;48.60;;;;;;2300620;54;20080;-76
2022/05/07 02:02:38;;;;;;;;;;;12.80;48.70;;;;;;2317759;54;20485;-76
2022/05/07 02:05:07;;;;;;;;;;;12.80;48.70;;;;;;2292834;54;20117;-76
2022/05/07 02:07:34;;;;;;;;;;;12.70;48.70;;;;;;2295015;54;20108;-76
2022/05/07 02:10:00;;;;;;;;;;;12.70;48.70;;;;;;2294102;54;20072;-76
2022/05/07 02:12:27;;;;;;;;;;;12.70;48.70;;;;;;2422021;54;20440;-75
2022/05/07 02:14:54;;;;;;;;;;;12.70;48.80;;;;;;2295514;54;20056;-76
2022/05/07 02:17:20;;;;;;;;;;;12.60;48.70;;;;;;2290402;54;20240;-77
2022/05/07 02:19:46;;;;;;;;;;;12.60;48.70;;;;;;2347836;54;20135;-76
2022/05/07 02:22:13;;;;;;;;;;;12.60;48.70;;;;;;2291565;54;20321;-77
2022/05/07 02:24:40;;;;;;;;;;;12.60;48.70;;;;;;2463929;54;20076;-76
2022/05/07 02:27:06;;;;;;;;;;;12.50;48.70;;;;;;2294296;55;20132;-76
2022/05/07 02:29:33;;;;;;;;;;;12.50;48.70;;;;;;2319526;54;20049;-76
2022/05/07 02:32:06;;;;;;;;;;;12.50;48.70;;;;;;2295820;55;20065;-76
2022/05/07 02:34:32;;;;;;;;;;;12.40;48.70;;;;;;2293730;54;20184;-76
2022/05/07 02:36:59;;;;;;;;;;;12.40;48.80;;;;;;2293455;54;20077;-76
2022/05/07 02:39:25;;;;;;;;;;;12.40;48.90;;;;;;2293535;54;20112;-76
2022/05/07 02:44:39;;;;;;;;;;;12.30;48.90;;;;;;2292505;54;20172;-76
2022/05/07 02:47:07;;;;;;;;;;;12.30;48.90;;;;;;2293059;54;20089;-76
2022/05/07 02:49:34;;;;;;;;;;;12.30;49.00;;;;;;2337094;54;20068;-76
2022/05/07 02:52:03;;;;;;;;;;;12.20;49.00;;;;;;2301946;54;20067;-77
2022/05/07 02:54:31;;;;;;;;;;;12.20;49.00;;;;;;2293888;54;20083;-76
2022/05/07 02:56:58;;;;;;;;;;;12.20;49.00;;;;;;2290619;54;20080;-76
2022/05/07 02:59:24;;;;;;;;;;;12.10;48.90;;;;;;2347988;54;20080;-76
2022/05/07 03:01:50;;;;;;;;;;;12.20;49.10;;;;;;2292609;54;20727;-76
2022/05/07 03:04:16;;;;;;;;;;;12.10;49.00;;;;;;2292588;54;20128;-77
2022/05/07 03:06:43;;;;;;;;;;;12.10;49.20;;;;;;2353244;54;20176;-76
2022/05/07 03:09:10;;;;;;;;;;;12.10;49.10;;;;;;2329522;54;20125;-76
2022/05/07 03:11:36;;;;;;;;;;;12.00;49.10;;;;;;2294699;54;20105;-76
2022/05/07 03:14:02;;;;;;;;;;;12.00;49.10;;;;;;2293112;54;20687;-76
2022/05/07 03:16:29;;;;;;;;;;;12.00;49.10;;;;;;2298779;54;20112;-76
2022/05/07 03:18:55;;;;;;;;;;;11.90;49.10;;;;;;2337852;54;20091;-76
2022/05/07 03:21:22;;;;;;;;;;;12.00;49.20;;;;;;2315230;54;20092;-76
2022/05/07 03:23:48;;;;;;;;;;;11.90;49.20;;;;;;2293337;54;20192;-76
2022/05/07 03:26:16;;;;;;;;;;;11.90;49.20;;;;;;2291274;54;20144;-76
2022/05/07 03:28:42;;;;;;;;;;;11.80;49.20;;;;;;2293654;54;20116;-76
2022/05/07 03:31:08;;;;;;;;;;;11.90;49.30;;;;;;2293012;54;20073;-76
2022/05/07 03:33:35;;;;;;;;;;;11.80;49.30;;;;;;2340731;54;20109;-76
2022/05/07 03:36:01;;;;;;;;;;;11.80;49.30;;;;;;2294340;54;20060;-76
2022/05/07 03:38:28;;;;;;;;;;;11.70;49.30;;;;;;2302876;54;20105;-76
2022/05/07 03:40:55;;;;;;;;;;;11.80;49.40;;;;;;2406273;54;20117;-76
2022/05/07 03:43:21;;;;;;;;;;;11.80;49.40;;;;;;2293410;54;20124;-76
2022/05/07 03:45:47;;;;;;;;;;;11.80;49.40;;;;;;2298153;54;20064;-76
2022/05/07 03:48:14;;;;;;;;;;;11.70;49.30;;;;;;2285897;54;20068;-77
2022/05/07 03:50:40;;;;;;;;;;;11.70;49.30;;;;;;2338378;54;20081;-76
2022/05/07 03:55:51;;;;;;;;;;;11.70;49.40;;;;;;2281187;54;20060;-76
2022/05/07 03:58:18;;;;;;;;;;;11.70;49.50;;;;;;2396174;54;20070;-76
2022/05/07 04:00:44;;;;;;;;;;;11.60;49.40;;;;;;2288130;55;20329;-76
2022/05/07 04:03:11;;;;;;;;;;;11.60;49.50;;;;;;2345488;54;20080;-76
2022/05/07 04:05:38;;;;;;;;;;;11.60;49.50;;;;;;2361175;54;20061;-76
2022/05/07 04:08:06;;;;;;;;;;;11.60;49.50;;;;;;2290181;54;20076;-77
2022/05/07 04:10:32;;;;;;;;;;;11.60;49.50;;;;;;2376888;54;20073;-76
2022/05/07 04:12:58;;;;;;;;;;;11.60;49.50;;;;;;2298555;54;20078;-76
2022/05/07 04:15:25;;;;;;;;;;;11.50;49.50;;;;;;2351643;54;20095;-76
2022/05/07 04:17:51;;;;;;;;;;;11.50;49.50;;;;;;2425488;54;20120;-76
2022/05/07 04:20:18;;;;;;;;;;;11.50;49.50;;;;;;2293298;54;20108;-76
2022/05/07 04:22:44;;;;;;;;;;;11.50;49.60;;;;;;2315651;54;20081;-76
2022/05/07 04:25:11;;;;;;;;;;;11.50;49.60;;;;;;2293534;54;20168;-76
2022/05/07 04:27:37;;;;;;;;;;;11.50;49.70;;;;;;2302427;54;20080;-76
2022/05/07 04:30:04;;;;;;;;;;;11.40;49.60;;;;;;2443021;53;20077;-76
2022/05/07 04:32:30;;;;;;;;;;;11.40;49.70;;;;;;2396151;54;20124;-76
2022/05/07 04:34:57;;;;;;;;;;;11.40;49.70;;;;;;2400290;53;20091;-76
2022/05/07 04:37:23;;;;;;;;;;;11.40;49.70;;;;;;2295418;54;20072;-76
2022/05/07 04:39:53;;;;;;;;;;;11.40;49.80;;;;;;2358177;54;20409;-76
2022/05/07 04:42:20;;;;;;;;;;;11.40;49.90;;;;;;2292326;55;20083;-76
2022/05/07 04:44:46;;;;;;;;;;;11.40;49.90;;;;;;2362552;54;20129;-76
2022/05/07 04:47:13;;;;;;;;;;;11.40;50.00;;;;;;2293775;54;20727;-76
2022/05/07 04:49:39;;;;;;;;;;;11.40;50.10;;;;;;2377237;54;20072;-76
2022/05/07 04:52:06;;;;;;;;;;;11.40;50.10;;;;;;2293778;54;20080;-77
2022/05/07 04:54:32;;;;;;;;;;;11.40;50.10;;;;;;2294578;54;20591;-76
2022/05/07 04:56:59;;;;;;;;;;;11.40;50.20;;;;;;2347005;54;20100;-77
2022/05/07 04:59:25;;;;;;;;;;;11.40;50.20;;;;;;2356644;54;20365;-76
2022/05/07 05:01:52;;;;;;;;;;;11.40;50.20;;;;;;2293357;54;20563;-76
2022/05/07 05:04:18;;;;;;;;;;;11.50;50.30;;;;;;2293185;54;20405;-76
2022/05/07 05:06:44;;;;;;;;;;;11.50;50.30;;;;;;2292343;54;20073;-76
2022/05/07 05:09:12;;;;;;;;;;;11.50;50.40;;;;;;2307516;54;20081;-76
2022/05/07 05:11:40;;;;;;;;;;;11.50;50.40;;;;;;2425732;54;20437;-76
2022/05/07 05:16:51;;;;;;;;;;;11.60;50.60;;;;;;2326408;54;20313;-76
2022/05/07 05:19:17;;;;;;;;;;;11.60;50.60;;;;;;2291786;54;20139;-76
2022/05/07 05:21:43;;;;;;;;;;;11.60;50.60;;;;;;2443494;54;20136;-76
2022/05/07 05:24:10;;;;;;;;;;;11.70;50.80;;;;;;2292675;54;20136;-76
2022/05/07 05:26:36;;;;;;;;;;;11.70;50.80;;;;;;2412037;54;20078;-76
2022/05/07 05:29:02;;;;;;;;;;;11.70;50.90;;;;;;2303705;54;20184;-76
2022/05/07 05:31:30;;;;;;;;;;;11.80;51.00;;;;;;2311118;54;20072;-76
2022/05/07 05:33:57;;;;;;;;;;;11.80;51.10;;;;;;2288944;55;20069;-76
2022/05/07 05:36:24;;;;;;;;;;;11.90;51.20;;;;;;2318429;54;20156;-76
2022/05/07 05:38:50;;;;;;;;;;;12.00;51.40;;;;;;2466995;54;20123;-76
2022/05/07 05:41:16;;;;;;;;;;;12.00;51.40;;;;;;2293165;54;20061;-76
2022/05/07 05:43:44;;;;;;;;;;;12.10;51.50;;;;;;2296250;54;20055;-76
2022/05/07 05:46:14;;;;;;;;;;;12.20;51.60;;;;;;2289605;54;20429;-78
2022/05/07 05:48:40;;;;;;;;;;;12.30;51.70;;;;;;2383156;54;20061;-76
2022/05/07 05:51:07;;;;;;;;;;;12.30;51.70;;;;;;2293187;54;20131;-76
2022/05/07 05:53:34;;;;;;;;;;;12.40;51.80;;;;;;2293318;54;20165;-75
2022/05/07 05:56:01;;;;;;;;;;;12.50;51.90;;;;;;2473038;54;20479;-76
2022/05/07 05:58:33;;;;;;;;;;;12.60;52.00;;;;;;2293447;54;20672;-76
2022/05/07 06:00:59;;;;;;;;;;;12.70;52.10;;;;;;2292750;54;20088;-77
2022/05/07 06:03:26;;;;;;;;;;;12.80;52.10;;;;;;2298896;54;20108;-76
2022/05/07 06:05:52;;;;;;;;;;;12.90;52.20;;;;;;2300635;54;20066;-77
2022/05/07 06:08:18;;;;;;;;;;;13.00;52.20;;;;;;2332131;54;20110;-77
2022/05/07 06:10:45;;;;;;;;;;;13.00;52.20;;;;;;2293221;55;20123;-76
2022/05/07 06:13:11;;;;;;;;;;;13.10;52.20;;;;;;2280435;54;20640;-76
2022/05/07 06:15:38;;;;;;;;;;;13.20;52.30;;;;;;2293022;54;20070;-76
2022/05/07 06:18:04;;;;;;;;;;;13.30;52.40;;;;;;2292801;54;20084;-76
2022/05/07 06:20:31;;;;;;;;;;;13.40;52.40;;;;;;2295864;54;20071;-76
2022/05/07 06:22:57;;;;;;;;;;;13.50;52.40;;;;;;2347550;54;20101;-76
2022/05/07 06:28:09;;;;;;;;;;;13.70;52.70;;;;;;2303321;54;20163;-76
2022/05/07 06:30:35;;;;;;;;;;;13.80;52.80;;;;;;2292763;54;20120;-76
2022/05/07 06:33:02;;;;;;;;;;;13.90;52.70;;;;;;2292303;54;20116;-76
2022/05/07 06:35:28;;;;;;;;;;;14.00;52.80;;;;;;2316175;54;20395;-76
2022/05/07 06:37:55;;;;;;;;;;;14.10;52.80;;;;;;2293150;54;20076;-78
2022/05/07 06:40:21;;;;;;;;;;;14.20;52.90;;;;;;2293558;54;20069;-76
2022/05/07 06:42:48;;;;;;;;;;;14.30;53.00;;;;;;2296232;54;20051;-76
2022/05/07 06:45:14;;;;;;;;;;;14.40;53.10;;;;;;2289963;54;20061;-77
2022/05/07 06:47:41;;;;;;;;;;;14.50;53.00;;;;;;2293870;54;20326;-77
2022/05/07 06:50:07;;;;;;;;;;;14.70;53.20;;;;;;2299697;54;20076;-78
2022/05/07 06:52:44;;;;;;;;;;;14.80;53.20;;;;;;2299485;54;20250;-77
2022/05/07 06:55:14;;;;;;;;;;;14.90;53.30;;;;;;2304155;54;20416;-77
2022/05/07 06:57:40;;;;;;;;;;;15.10;53.40;;;;;;2303569;54;20099;-77
2022/05/07 07:00:07;;;;;;;;;;;15.20;53.40;;;;;;2290463;54;20140;-77
2022/05/07 07:02:33;;;;;;;;;;;15.40;53.50;;;;;;2293097;54;20119;-76
2022/05/07 07:05:02;;;;;;;;;;;15.60;53.80;;;;;;2293773;54;20594;-76
2022/05/07 07:07:28;;;;;;;;;;;15.90;54.30;;;;;;2307294;55;20098;-77
2022/05/07 07:09:54;;;;;;;;;;;16.30;55.10;;;;;;2306984;54;20111;-77
2022/05/07 07:12:21;;;;;;;;;;;16.70;55.50;;;;;;2279274;54;20553;-80
2022/05/07 07:14:52;;;;;;;;;;;17.00;55.50;;;;;;2293163;54;20128;-79
2022/05/07 07:17:19;;;;;;;;;;;17.40;55.40;;;;;;2293175;54;20077;-77
2022/05/07 07:19:45;;;;;;;;;;;17.60;55.10;;;;;;2300425;54;20111;-75
2022/05/07 07:22:12;;;;;;;;;;;17.80;54.70;;;;;;2301591;54;20127;-77
2022/05/07 07:24:38;;;;;;;;;;;18.00;54.60;;;;;;2288504;54;20072;-76
2022/05/07 07:27:08;;;;;;;;;;;18.30;54.90;;;;;;2426628;54;20403;-76
2022/05/07 07:29:34;;;;;;;;;;;18.60;55.30;;;;;;2286483;55;20057;-76
2022/05/07 07:32:01;;;;;;;;;;;19.00;55.60;;;;;;2447397;54;20134;-79
2022/05/07 07:34:27;;;;;;;;;;;19.40;55.70;;;;;;2293114;54;20068;-82
2022/05/07 07:36:54;;;;;;;;;;;19.70;55.50;;;;;;2301561;54;20132;-78
2022/05/07 07:39:20;;;;;;;;;;;20.00;55.20;;;;;;2317747;54;20077;-78
2022/05/07 07:41:47;;;;;;;;;;;20.30;54.80;;;;;;2292712;55;20289;-78
2022/05/07 07:44:13;;;;;;;;;;;20.40;54.50;;;;;;2289555;54;20148;-77
2022/05/07 07:49:24;;;;;;;;;;;20.80;54.10;;;;;;2369648;54;20360;-79
2022/05/07 07:51:50;;;;;;;;;;;21.00;54.20;;;;;;2292031;55;20136;-79
2022/05/07 07:54:16;;;;;;;;;;;21.30;54.40;;;;;;2292054;54;20132;-79
2022/05/07 07:56:43;;;;;;;;;;;21.40;54.20;;;;;;2297550;54;20129;-78
2022/05/07 07:59:12;;;;;;;;;;;21.60;53.90;;;;;;2442755;54;20057;-80
2022/05/07 08:01:38;;;;;;;;;;;21.70;53.50;;;;;;2293866;54;20612;-78
2022/05/07 08:04:05;;;;;;;;;;;21.80;53.10;;;;;;2418590;54;20081;-80
2022/05/07 08:06:32;;;;;;;;;;;21.80;52.50;;;;;;2292664;54;20071;-79
2022/05/07 08:11:47;;;;;;;;;;;21.80;51.70;;;;;;2341617;54;20163;-79
2022/05/07 08:14:13;;;;;;;;;;;21.70;51.40;;;;;;2335740;54;20101;-75
2022/05/07 08:16:40;;;;;;;;;;;21.70;51.20;;;;;;2292875;54;20088;-74
2022/05/07 08:19:06;;;;;;;;;;;21.60;51.50;;;;;;2353739;54;20544;-75
2022/05/07 08:21:32;;;;;;;;;;;21.60;50.60;;;;;;2288986;54;20071;-74
2022/05/07 08:24:01;;;;;;;;;;;21.50;50.50;;;;;;2293399;54;20117;-75
2022/05/07 08:26:27;;;;;;;;;;;21.50;50.70;;;;;;2332704;54;20097;-74
2022/05/07 08:28:53;;;;;;;;;;;21.40;50.80;;;;;;2298309;54;20084;-73
2022/05/07 08:31:23;;;;;;;;;;;21.50;51.00;;;;;;2333369;54;20112;-74
2022/05/07 08:33:56;;;;;;;;;;;21.50;51.10;;;;;;2293413;54;20068;-73
2022/05/07 08:36:22;;;;;;;;;;;21.50;51.20;;;;;;2342014;54;20063;-73
2022/05/07 08:38:49;;;;;;;;;;;21.60;51.30;;;;;;2527239;53;20156;-74
2022/05/07 08:41:15;;;;;;;;;;;21.70;51.30;;;;;;2279149;54;20294;-74
2022/05/07 08:43:42;;;;;;;;;;;21.70;51.30;;;;;;2308546;54;20187;-74
2022/05/07 08:46:16;;;;;;;;;;;21.80;51.30;;;;;;2288124;54;20120;-77
2022/05/07 08:48:42;;;;;;;;;;;21.90;51.30;;;;;;2311203;54;20139;-74
2022/05/07 08:51:09;;;;;;;;;;;22.00;51.20;;;;;;2317788;54;20624;-75
2022/05/07 08:53:35;;;;;;;;;;;22.10;51.20;;;;;;2291146;54;20349;-76
2022/05/07 08:56:02;;;;;;;;;;;22.10;51.00;;;;;;2293334;54;20128;-75
2022/05/07 08:58:29;;;;;;;;;;;22.20;51.00;;;;;;2333060;54;20624;-75
2022/05/07 09:00:56;;;;;;;;;;;22.30;51.10;;;;;;2305899;54;20164;-74
2022/05/07 09:03:24;;;;;;;;;;;22.40;51.30;;;;;;2292351;54;20105;-74
2022/05/07 09:05:50;;;;;;;;;;;22.50;51.20;;;;;;2292123;54;20097;-75
2022/05/07 09:08:23;;;;;;;;;;;22.50;51.30;;;;;;2292590;54;20160;-74
2022/05/07 09:10:53;;;;;;;;;;;22.70;51.40;;;;;;2306300;54;20072;-76
2022/05/07 09:13:19;;;;;;;;;;;22.90;51.50;;;;;;2295246;54;20133;-74
2022/05/07 09:15:51;;;;;;;;;;;23.00;51.40;;;;;;2313212;54;20064;-74
2022/05/07 09:18:19;;;;;;;;;;;23.20;51.30;;;;;;2296994;54;20068;-73
2022/05/07 09:20:56;;;;;;;;;;;23.30;51.10;;;;;;2293330;54;20555;-74
2022/05/07 09:23:23;;;;;;;;;;;23.40;51.00;;;;;;2387887;54;20052;-74
2022/05/07 09:25:49;;;;;;;;;;;23.50;50.90;;;;;;2291666;54;20163;-75
2022/05/07 09:28:27;;;;;;;;;;;23.60;50.90;;;;;;2293394;54;20188;-74
2022/05/07 09:30:57;;;;;;;;;;;23.70;50.70;;;;;;2309127;54;20302;-76
2022/05/07 09:33:33;;;;;;;;;;;23.80;50.40;;;;;;2293352;54;20173;-74
2022/05/07 09:36:10;;;;;;;;;;;23.80;50.30;;;;;;2292865;54;20192;-73
2022/05/07 09:38:37;;;;;;;;;;;23.80;50.20;;;;;;2378726;54;20069;-73
2022/05/07 09:41:04;;;;;;;;;;;23.90;50.20;;;;;;2296396;54;20055;-75
2022/05/07 09:43:31;;;;;;;;;;;24.00;50.30;;;;;;2293619;54;20156;-73
2022/05/07 09:46:00;;;;;;;;;;;24.10;50.30;;;;;;2282001;54;20116;-74
2022/05/07 09:48:26;;;;;;;;;;;24.10;50.10;;;;;;2285584;54;20192;-73
2022/05/07 09:50:52;;;;;;;;;;;24.20;50.10;;;;;;2306146;54;20083;-74
2022/05/07 09:58:48;;;;;;;;;;;24.40;49.30;;;;;;2310732;54;20065;-73
2022/05/07 10:01:32;;;;;;;;;;;24.50;49.30;;;;;;2293351;54;20082;-73
2022/05/07 10:04:17;;;;;;;;;;;24.60;49.30;;;;;;2296442;54;20085;-74
2022/05/07 10:08:39;;;;;;;;;;;24.60;49.30;;;;;;2374961;55;20313;-74
2022/05/07 10:11:05;;;;;;;;;;;24.70;49.30;;;;;;2292583;54;20182;-74
2022/05/07 10:13:33;;;;;;;;;;;24.70;49.60;;;;;;2406026;54;20084;-73
2022/05/07 10:16:03;;;;;;;;;;;24.70;48.60;;;;;;2291649;54;20173;-73
2022/05/07 10:18:33;;;;;;;;;;;24.70;48.50;;;;;;2293446;54;20060;-73
2022/05/07 10:21:09;;;;;;;;;;;24.70;48.30;;;;;;2407236;54;20129;-71
2022/05/07 10:23:38;;;;;;;;;;;24.60;48.00;;;;;;2293741;54;20092;-73
2022/05/07 10:26:05;;;;;;;;;;;24.60;48.70;;;;;;2404673;54;20618;-74
2022/05/07 10:28:38;;;;;;;;;;;24.60;48.00;;;;;;2292940;54;20068;-71
2022/05/07 10:31:16;;;;;;;;;;;24.60;48.50;;;;;;2293314;54;20168;-74
2022/05/07 10:33:43;;;;;;;;;;;24.60;48.10;;;;;;2463589;54;20084;-71
2022/05/07 10:36:09;;;;;;;;;;;24.60;48.00;;;;;;2372038;54;20738;-74
2022/05/07 10:38:37;;;;;;;;;;;24.60;47.90;;;;;;2293435;55;20446;-73
2022/05/07 10:41:04;;;;;;;;;;;24.70;48.00;;;;;;2362143;54;20111;-72
2022/05/07 10:43:34;;;;;;;;;;;24.70;48.00;;;;;;2279077;55;20109;-72
2022/05/07 10:49:19;;;;;;;;;;;24.90;48.10;;;;;;2267266;54;1798029;-75
2022/05/07 10:51:51;;;;;;;;;;;25.00;48.20;;;;;;2279963;54;20069;-72
2022/05/07 10:54:19;;;;;;;;;;;25.20;48.30;;;;;;2295907;54;20063;-75
2022/05/07 10:56:49;;;;;;;;;;;25.30;48.30;;;;;;2290159;54;20081;-75
2022/05/07 10:59:16;;;;;;;;;;;25.50;48.00;;;;;;2293063;54;20129;-73
2022/05/07 11:01:42;;;;;;;;;;;25.50;47.70;;;;;;2293082;54;20633;-72
2022/05/07 11:04:10;;;;;;;;;;;25.60;47.30;;;;;;2295040;54;20163;-69
2022/05/07 11:06:48;;;;;;;;;;;25.70;47.00;;;;;;2429385;54;20167;-73
2022/05/07 11:09:15;;;;;;;;;;;25.80;47.20;;;;;;2292815;55;20348;-73
2022/05/07 11:11:44;;;;;;;;;;;25.90;47.30;;;;;;2289855;55;20116;-73
2022/05/07 11:14:11;;;;;;;;;;;25.90;46.90;;;;;;2307099;54;20136;-74
2022/05/07 11:16:40;;;;;;;;;;;26.00;46.90;;;;;;2376859;54;20152;-75
2022/05/07 11:19:07;;;;;;;;;;;26.10;46.80;;;;;;2392364;54;20140;-72
2022/05/07 11:21:36;;;;;;;;;;;26.10;46.60;;;;;;2293313;54;20089;-74
2022/05/07 11:24:06;;;;;;;;;;;26.20;46.30;;;;;;2359282;55;20101;-74
2022/05/07 11:26:32;;;;;;;;;;;26.20;46.00;;;;;;2357476;54;20077;-72
2022/05/07 11:28:59;;;;;;;;;;;26.30;45.80;;;;;;2376197;54;20055;-71
2022/05/07 11:31:31;;;;;;;;;;;26.30;45.80;;;;;;2293176;54;20334;-72
2022/05/07 11:34:31;;;;;;;;;;;26.30;45.40;;;;;;2349265;54;20163;-73
2022/05/07 11:38:50;;;;;;;;;;;26.30;45.60;;;;;;2310618;54;20317;-74
2022/05/07 11:41:19;;;;;;;;;;;26.40;45.80;;;;;;2345138;54;20076;-72
2022/05/07 11:46:55;;;;;;;;;;;26.50;44.90;;;;;;2292454;54;20133;-72
2022/05/07 11:49:28;;;;;;;;;;;26.50;44.60;;;;;;2314429;54;20093;-74
2022/05/07 11:52:06;;;;;;;;;;;26.40;44.30;;;;;;2292763;54;20326;-72
2022/05/07 11:54:33;;;;;;;;;;;26.40;44.40;;;;;;2292279;54;20342;-72
2022/05/07 11:56:59;;;;;;;;;;;26.40;44.50;;;;;;2445919;54;20073;-74
2022/05/07 11:59:25;;;;;;;;;;;26.40;44.70;;;;;;2292763;54;20196;-72
2022/05/07 12:01:52;;;;;;;;;;;26.40;44.40;;;;;;2292180;54;20097;-72
2022/05/07 12:04:18;;;;;;;;;;;26.50;44.60;;;;;;2291835;54;20407;-72
2022/05/07 12:06:55;;;;;;;;;;;26.50;44.40;;;;;;2295709;54;20559;-75
2022/05/07 12:09:21;;;;;;;;;;;26.50;44.10;;;;;;2438255;54;20080;-72
2022/05/07 12:11:48;;;;;;;;;;;26.50;44.00;;;;;;2284628;54;20089;-72
2022/05/07 12:14:15;;;;;;;;;;;26.50;43.80;;;;;;2292785;54;20568;-74
2022/05/07 12:19:30;;;;;;;;;;;26.50;43.40;;;;;;2292612;54;20056;-72
2022/05/07 12:30:13;;;;;;;;;;;26.40;43.30;;;;;;2306335;54;20140;-72
2022/05/07 12:32:42;;;;;;;;;;;26.50;43.50;;;;;;2293270;54;20746;-71
2022/05/07 12:35:08;;;;;;;;;;;26.60;43.40;;;;;;2292271;54;20168;-73
2022/05/07 12:37:37;;;;;;;;;;;26.60;43.10;;;;;;2292855;54;20121;-70
2022/05/07 12:40:07;;;;;;;;;;;26.70;43.00;;;;;;2292459;54;20129;-74
2022/05/07 12:42:35;;;;;;;;;;;26.70;43.10;;;;;;2295968;55;20069;-73
2022/05/07 12:45:12;;;;;;;;;;;26.70;42.80;;;;;;2288787;55;20065;-72
2022/05/07 12:47:39;;;;;;;;;;;26.70;42.30;;;;;;2293676;54;20081;-73
2022/05/07 12:50:05;;;;;;;;;;;26.70;42.40;;;;;;2303894;55;20055;-73
2022/05/07 12:52:32;;;;;;;;;;;26.70;42.10;;;;;;2293557;54;20105;-73
2022/05/07 12:54:58;;;;;;;;;;;26.60;42.00;;;;;;2471371;54;20639;-74
2022/05/07 12:57:24;;;;;;;;;;;26.60;41.70;;;;;;2437123;54;20085;-73
2022/05/07 12:59:50;;;;;;;;;;;26.50;41.70;;;;;;2293506;54;20133;-75
2022/05/07 13:02:17;;;;;;;;;;;26.50;41.80;;;;;;2294107;54;20091;-74
2022/05/07 13:04:43;;;;;;;;;;;26.40;41.30;;;;;;2292153;54;20695;-73
2022/05/07 13:07:10;;;;;;;;;;;26.40;41.20;;;;;;2306642;54;20124;-72
2022/05/07 13:09:36;;;;;;;;;;;26.40;41.40;;;;;;2315462;54;20060;-72
2022/05/07 13:12:17;;;;;;;;;;;26.30;41.50;;;;;;2293864;54;20715;-74
2022/05/07 13:14:43;;;;;;;;;;;26.30;41.60;;;;;;2293343;54;20064;-71
2022/05/07 13:17:10;;;;;;;;;;;26.40;41.90;;;;;;2428131;54;20340;-73
2022/05/07 13:19:36;;;;;;;;;;;26.40;42.00;;;;;;2293496;54;20315;-73
2022/05/07 13:22:02;;;;;;;;;;;26.50;42.30;;;;;;2293264;54;20093;-71
2022/05/07 13:24:29;;;;;;;;;;;26.70;42.30;;;;;;2293492;54;20117;-72
2022/05/07 13:26:55;;;;;;;;;;;26.80;42.50;;;;;;2293452;54;20072;-73
2022/05/07 13:29:21;;;;;;;;;;;26.90;42.20;;;;;;2271543;55;20076;-71
2022/05/07 13:31:49;;;;;;;;;;;27.00;41.90;;;;;;2291022;54;20140;-74
2022/05/07 13:34:16;;;;;;;;;;;27.00;41.40;;;;;;2387191;54;20560;-73
2022/05/07 13:36:42;;;;;;;;;;;27.00;41.10;;;;;;2289261;55;20559;-72
2022/05/07 13:39:13;;;;;;;;;;;27.00;40.80;;;;;;2375430;54;20173;-76
2022/05/07 13:41:40;;;;;;;;;;;26.90;40.30;;;;;;2292500;54;20080;-74
2022/05/07 13:44:11;;;;;;;;;;;26.80;40.40;;;;;;2294059;54;20129;-74
2022/05/07 13:46:37;;;;;;;;;;;26.80;40.60;;;;;;2291081;54;20384;-76
2022/05/07 13:49:04;;;;;;;;;;;26.80;40.60;;;;;;2293319;54;20572;-75
2022/05/07 13:51:30;;;;;;;;;;;26.80;40.50;;;;;;2290820;55;20504;-74
2022/05/07 13:53:57;;;;;;;;;;;26.80;40.60;;;;;;2293067;54;20135;-72
2022/05/07 13:56:23;;;;;;;;;;;26.90;40.70;;;;;;2383165;54;20115;-74
2022/05/07 13:58:49;;;;;;;;;;;27.00;40.70;;;;;;2294819;54;20123;-74
2022/05/07 14:01:16;;;;;;;;;;;27.10;40.70;;;;;;2369838;54;20132;-71
2022/05/07 14:03:42;;;;;;;;;;;27.10;40.50;;;;;;2293271;54;20055;-70
2022/05/07 14:06:08;;;;;;;;;;;27.20;40.20;;;;;;2273362;55;20084;-71
2022/05/07 14:08:35;;;;;;;;;;;27.10;39.80;;;;;;2526864;54;20096;-72
2022/05/07 14:11:01;;;;;;;;;;;27.10;39.50;;;;;;2290287;54;20125;-73
2022/05/07 14:13:28;;;;;;;;;;;27.10;39.40;;;;;;2292573;54;20125;-71
2022/05/07 14:15:54;;;;;;;;;;;27.10;39.80;;;;;;2292993;54;20702;-72
2022/05/07 14:18:20;;;;;;;;;;;27.10;39.50;;;;;;2293147;54;20148;-72
2022/05/07 14:20:48;;;;;;;;;;;27.20;39.60;;;;;;2447108;54;20690;-75
2022/05/07 14:23:16;;;;;;;;;;;27.20;39.80;;;;;;2292374;54;20176;-71
2022/05/07 14:25:42;;;;;;;;;;;27.30;40.10;;;;;;2292036;54;20096;-76
2022/05/07 14:28:09;;;;;;;;;;;27.40;39.90;;;;;;2293747;54;20101;-70
2022/05/07 14:30:35;;;;;;;;;;;27.50;39.80;;;;;;2292648;54;20124;-71
2022/05/07 14:33:02;;;;;;;;;;;27.50;39.70;;;;;;2318781;54;20075;-73
2022/05/07 14:35:28;;;;;;;;;;;27.60;39.20;;;;;;2376763;54;20124;-71
2022/05/07 14:37:55;;;;;;;;;;;27.60;38.90;;;;;;2293343;54;20864;-71
2022/05/07 14:40:33;;;;;;;;;;;27.70;39.20;;;;;;2384275;54;20318;-70
2022/05/07 14:43:01;;;;;;;;;;;27.70;39.20;;;;;;2290618;54;20085;-69
2022/05/07 14:45:27;;;;;;;;;;;27.80;39.10;;;;;;2293303;55;20084;-74
2022/05/07 14:47:57;;;;;;;;;;;27.80;39.00;;;;;;2268529;55;20081;-70
2022/05/07 14:50:23;;;;;;;;;;;27.80;38.60;;;;;;2293147;54;20085;-69
2022/05/07 14:52:50;;;;;;;;;;;27.90;38.50;;;;;;2449102;54;20131;-71
2022/05/07 14:55:16;;;;;;;;;;;27.90;38.10;;;;;;2292287;54;20164;-71
2022/05/07 14:57:43;;;;;;;;;;;27.90;37.90;;;;;;2293278;54;20065;-70
2022/05/07 15:00:13;;;;;;;;;;;27.80;37.50;;;;;;2332641;54;20125;-72
2022/05/07 15:02:43;;;;;;;;;;;27.80;37.70;;;;;;2288833;55;20085;-72
2022/05/07 15:05:28;;;;;;;;;;;27.70;37.40;;;;;;2292716;54;20073;-71
2022/05/07 15:07:54;;;;;;;;;;;27.70;37.50;;;;;;2293325;54;20078;-75
2022/05/07 15:10:38;;;;;;;;;;;27.60;37.50;;;;;;2289926;54;20128;-76